sensor_id;sensor_type;location;lat;lon;timestamp;pressure;altitude;pressure_sealevel;temperature;humidity
10948;BME280;5526;42.070;24.752;2023-03-14T00:00:12;99423.53;;;4.74;56.12
10948;BME280;5526;42.070;24.752;2023-03-14T00:02:40;99419.13;;;4.68;55.80
10948;BME280;5526;42.070;24.752;2023-03-14T00:05:08;99426.72;;;4.76;55.09
10948;BME280;5526;42.070;24.752;2023-03-14T00:07:37;99425.72;;;4.70;55.01
10948;BME280;5526;42.070;24.752;2023-03-14T00:10:07;99421.91;;;4.72;55.34
10948;BME280;5526;42.070;24.752;2023-03-14T00:12:35;99418.91;;;4.76;55.00
10948;BME280;5526;42.070;24.752;2023-03-14T00:15:02;99418.13;;;4.68;54.99
10948;BME280;5526;42.070;24.752;2023-03-14T00:17:31;99400.69;;;4.69;55.17
10948;BME280;5526;42.070;24.752;2023-03-14T00:19:58;99400.69;;;4.69;55.34
10948;BME280;5526;42.070;24.752;2023-03-14T00:22:30;99392.25;;;4.67;55.24
10948;BME280;5526;42.070;24.752;2023-03-14T00:24:57;99387.66;;;4.69;55.59
10948;BME280;5526;42.070;24.752;2023-03-14T00:27:24;99374.81;;;4.68;55.61
10948;BME280;5526;42.070;24.752;2023-03-14T00:29:51;99377.81;;;4.64;55.74
10948;BME280;5526;42.070;24.752;2023-03-14T00:32:18;99371.22;;;4.62;55.77
10948;BME280;5526;42.070;24.752;2023-03-14T00:34:46;99370.22;;;4.63;56.04
10948;BME280;5526;42.070;24.752;2023-03-14T00:37:13;99367.81;;;4.61;56.11
10948;BME280;5526;42.070;24.752;2023-03-14T00:39:41;99357.22;;;4.50;56.77
10948;BME280;5526;42.070;24.752;2023-03-14T00:42:08;99367.44;;;4.58;56.92
10948;BME280;5526;42.070;24.752;2023-03-14T00:44:35;99360.44;;;4.52;57.23
10948;BME280;5526;42.070;24.752;2023-03-14T00:47:02;99361.06;;;4.41;57.81
10948;BME280;5526;42.070;24.752;2023-03-14T00:49:29;99356.06;;;4.39;58.28
10948;BME280;5526;42.070;24.752;2023-03-14T00:51:58;99357.84;;;4.45;58.14
10948;BME280;5526;42.070;24.752;2023-03-14T00:54:25;99349.25;;;4.38;58.55
10948;BME280;5526;42.070;24.752;2023-03-14T00:56:52;99349.69;;;4.29;59.00
10948;BME280;5526;42.070;24.752;2023-03-14T00:59:19;99350.09;;;4.19;59.39
10948;BME280;5526;42.070;24.752;2023-03-14T01:01:46;99341.88;;;4.22;59.72
10948;BME280;5526;42.070;24.752;2023-03-14T01:04:13;99347.09;;;4.29;59.55
10948;BME280;5526;42.070;24.752;2023-03-14T01:06:40;99333.84;;;4.24;59.80
10948;BME280;5526;42.070;24.752;2023-03-14T01:09:09;99340.91;;;4.17;60.17
10948;BME280;5526;42.070;24.752;2023-03-14T01:11:36;99331.91;;;4.13;60.21
10948;BME280;5526;42.070;24.752;2023-03-14T01:14:03;99319.06;;;4.05;60.20
10948;BME280;5526;42.070;24.752;2023-03-14T01:16:31;99329.50;;;4.11;60.28
10948;BME280;5526;42.070;24.752;2023-03-14T01:18:59;99320.06;;;4.17;59.73
10948;BME280;5526;42.070;24.752;2023-03-14T01:21:28;99314.22;;;4.21;59.65
10948;BME280;5526;42.070;24.752;2023-03-14T01:23:56;99312.84;;;4.19;59.55
10948;BME280;5526;42.070;24.752;2023-03-14T01:26:26;99313.84;;;4.18;59.50
10948;BME280;5526;42.070;24.752;2023-03-14T01:28:55;99301.44;;;4.13;59.76
10948;BME280;5526;42.070;24.752;2023-03-14T01:31:23;99297.44;;;4.11;59.75
10948;BME280;5526;42.070;24.752;2023-03-14T01:33:50;99306.44;;;4.15;60.18
10948;BME280;5526;42.070;24.752;2023-03-14T01:36:18;99310.84;;;4.08;60.05
10948;BME280;5526;42.070;24.752;2023-03-14T01:38:45;99307.47;;;4.07;59.74
10948;BME280;5526;42.070;24.752;2023-03-14T01:41:14;99311.66;;;4.15;60.13
10948;BME280;5526;42.070;24.752;2023-03-14T01:43:43;99304.03;;;4.13;59.91
10948;BME280;5526;42.070;24.752;2023-03-14T01:46:30;99300.81;;;4.18;60.12
10948;BME280;5526;42.070;24.752;2023-03-14T01:49:06;99302.81;;;4.16;59.89
10948;BME280;5526;42.070;24.752;2023-03-14T01:51:41;99306.66;;;4.07;60.25
10948;BME280;5526;42.070;24.752;2023-03-14T01:54:13;99300.22;;;4.09;60.28
10948;BME280;5526;42.070;24.752;2023-03-14T01:56:42;99297.06;;;4.07;60.26
10948;BME280;5526;42.070;24.752;2023-03-14T01:59:12;99300.63;;;4.06;59.97
10948;BME280;5526;42.070;24.752;2023-03-14T02:01:43;99295.44;;;4.06;60.60
10948;BME280;5526;42.070;24.752;2023-03-14T02:04:11;99295.06;;;4.03;60.09
10948;BME280;5526;42.070;24.752;2023-03-14T02:06:46;99294.03;;;4.04;60.37
10948;BME280;5526;42.070;24.752;2023-03-14T02:09:14;99293.84;;;3.99;60.41
10948;BME280;5526;42.070;24.752;2023-03-14T02:11:43;99295.47;;;3.93;60.59
10948;BME280;5526;42.070;24.752;2023-03-14T02:14:21;99290.88;;;3.89;61.30
10948;BME280;5526;42.070;24.752;2023-03-14T02:16:50;99300.28;;;3.90;61.08
10948;BME280;5526;42.070;24.752;2023-03-14T02:19:23;99278.25;;;3.92;61.00
10948;BME280;5526;42.070;24.752;2023-03-14T02:21:59;99280.66;;;3.94;60.40
10948;BME280;5526;42.070;24.752;2023-03-14T02:24:35;99272.63;;;3.89;60.09
10948;BME280;5526;42.070;24.752;2023-03-14T02:27:09;99274.47;;;3.88;60.24
10948;BME280;5526;42.070;24.752;2023-03-14T02:29:40;99276.25;;;3.88;59.86
10948;BME280;5526;42.070;24.752;2023-03-14T02:32:10;99279.88;;;3.87;60.09
10948;BME280;5526;42.070;24.752;2023-03-14T02:34:38;99278.69;;;3.83;60.18
10948;BME280;5526;42.070;24.752;2023-03-14T02:37:06;99274.69;;;3.80;60.24
10948;BME280;5526;42.070;24.752;2023-03-14T02:39:37;99274.88;;;3.79;60.32
10948;BME280;5526;42.070;24.752;2023-03-14T02:42:05;99274.88;;;3.79;60.49
10948;BME280;5526;42.070;24.752;2023-03-14T02:44:33;99275.88;;;3.84;60.57
10948;BME280;5526;42.070;24.752;2023-03-14T02:47:02;99274.47;;;3.88;60.43
10948;BME280;5526;42.070;24.752;2023-03-14T02:49:31;99278.47;;;3.91;60.72
10948;BME280;5526;42.070;24.752;2023-03-14T02:52:00;99279.88;;;3.87;60.69
10948;BME280;5526;42.070;24.752;2023-03-14T02:54:27;99286.66;;;3.88;60.99
10948;BME280;5526;42.070;24.752;2023-03-14T02:56:54;99285.06;;;3.87;61.24
10948;BME280;5526;42.070;24.752;2023-03-14T02:59:21;99294.06;;;3.91;61.21
10948;BME280;5526;42.070;24.752;2023-03-14T03:01:49;99293.88;;;3.92;61.07
10948;BME280;5526;42.070;24.752;2023-03-14T03:04:16;99288.50;;;3.87;61.33
10948;BME280;5526;42.070;24.752;2023-03-14T03:06:43;99292.06;;;3.86;61.33
10948;BME280;5526;42.070;24.752;2023-03-14T03:09:10;99290.69;;;3.84;61.93
10948;BME280;5526;42.070;24.752;2023-03-14T03:11:37;99298.28;;;3.85;61.83
10948;BME280;5526;42.070;24.752;2023-03-14T03:14:04;99286.88;;;3.80;61.95
10948;BME280;5526;42.070;24.752;2023-03-14T03:16:31;99293.50;;;3.76;62.22
10948;BME280;5526;42.070;24.752;2023-03-14T03:19:00;99298.91;;;3.74;62.60
10948;BME280;5526;42.070;24.752;2023-03-14T03:21:27;99308.72;;;3.72;62.89
10948;BME280;5526;42.070;24.752;2023-03-14T03:23:54;99303.72;;;3.71;62.62
10948;BME280;5526;42.070;24.752;2023-03-14T03:26:21;99294.91;;;3.72;62.77
10948;BME280;5526;42.070;24.752;2023-03-14T03:28:50;99296.50;;;3.73;63.21
10948;BME280;5526;42.070;24.752;2023-03-14T03:31:17;99297.13;;;3.68;63.54
10948;BME280;5526;42.070;24.752;2023-03-14T03:33:44;99288.50;;;3.68;63.65
10948;BME280;5526;42.070;24.752;2023-03-14T03:36:13;99289.50;;;3.67;64.13
10948;BME280;5526;42.070;24.752;2023-03-14T03:38:40;99286.91;;;3.67;64.43
10948;BME280;5526;42.070;24.752;2023-03-14T03:41:07;99290.28;;;3.67;64.25
10948;BME280;5526;42.070;24.752;2023-03-14T03:43:34;99293.72;;;3.68;64.29
10948;BME280;5526;42.070;24.752;2023-03-14T03:46:03;99284.31;;;3.67;64.53
10948;BME280;5526;42.070;24.752;2023-03-14T03:48:30;99286.69;;;3.62;64.43
10948;BME280;5526;42.070;24.752;2023-03-14T03:50:57;99278.88;;;3.62;64.32
10948;BME280;5526;42.070;24.752;2023-03-14T03:53:26;99287.09;;;3.65;64.26
10948;BME280;5526;42.070;24.752;2023-03-14T03:55:53;99286.91;;;3.67;64.36
10948;BME280;5526;42.070;24.752;2023-03-14T03:58:20;99290.72;;;3.64;64.03
10948;BME280;5526;42.070;24.752;2023-03-14T04:00:48;99288.72;;;3.60;64.68
10948;BME280;5526;42.070;24.752;2023-03-14T04:03:15;99289.72;;;3.59;64.45
10948;BME280;5526;42.070;24.752;2023-03-14T04:05:41;99280.31;;;3.64;64.12
10948;BME280;5526;42.070;24.752;2023-03-14T04:08:08;99276.72;;;3.59;64.21
10948;BME280;5526;42.070;24.752;2023-03-14T04:10:37;99268.31;;;3.44;64.52
10948;BME280;5526;42.070;24.752;2023-03-14T04:13:04;99272.28;;;3.53;64.32
10948;BME280;5526;42.070;24.752;2023-03-14T04:15:31;99260.31;;;3.52;64.66
10948;BME280;5526;42.070;24.752;2023-03-14T04:17:58;99262.31;;;3.56;64.13
10948;BME280;5526;42.070;24.752;2023-03-14T04:20:25;99271.31;;;3.60;64.02
10948;BME280;5526;42.070;24.752;2023-03-14T04:22:52;99259.91;;;3.55;64.05
10948;BME280;5526;42.070;24.752;2023-03-14T04:25:19;99253.50;;;3.51;63.94
10948;BME280;5526;42.070;24.752;2023-03-14T04:27:48;99256.50;;;3.48;64.57
10948;BME280;5526;42.070;24.752;2023-03-14T04:30:15;99262.91;;;3.52;64.25
10948;BME280;5526;42.070;24.752;2023-03-14T04:32:42;99258.91;;;3.49;64.31
10948;BME280;5526;42.070;24.752;2023-03-14T04:35:09;99259.50;;;3.45;64.49
10948;BME280;5526;42.070;24.752;2023-03-14T04:37:36;99258.91;;;3.43;64.66
10948;BME280;5526;42.070;24.752;2023-03-14T04:40:04;99255.13;;;3.39;64.90
10948;BME280;5526;42.070;24.752;2023-03-14T04:42:32;99252.91;;;3.36;65.17
10948;BME280;5526;42.070;24.752;2023-03-14T04:45:00;99258.69;;;3.38;65.47
10948;BME280;5526;42.070;24.752;2023-03-14T04:47:27;99255.91;;;3.39;65.74
10948;BME280;5526;42.070;24.752;2023-03-14T04:49:55;99252.50;;;3.45;65.13
10948;BME280;5526;42.070;24.752;2023-03-14T04:52:22;99254.47;;;3.50;65.29
10948;BME280;5526;42.070;24.752;2023-03-14T04:54:49;99259.47;;;3.58;65.67
10948;BME280;5526;42.070;24.752;2023-03-14T04:57:16;99261.66;;;3.67;65.23
10948;BME280;5526;42.070;24.752;2023-03-14T04:59:43;99256.88;;;3.71;65.45
10948;BME280;5526;42.070;24.752;2023-03-14T05:02:11;99262.44;;;3.81;64.87
10948;BME280;5526;42.070;24.752;2023-03-14T05:04:38;99264.84;;;3.95;64.57
10948;BME280;5526;42.070;24.752;2023-03-14T05:07:05;99264.19;;;4.13;64.39
10948;BME280;5526;42.070;24.752;2023-03-14T05:09:32;99263.94;;;4.27;64.10
10948;BME280;5526;42.070;24.752;2023-03-14T05:11:59;99256.66;;;4.36;64.01
10948;BME280;5526;42.070;24.752;2023-03-14T05:14:26;99273.84;;;4.50;62.88
10948;BME280;5526;42.070;24.752;2023-03-14T05:16:54;99279.25;;;4.48;62.92
10948;BME280;5526;42.070;24.752;2023-03-14T05:19:22;99277.69;;;4.41;63.11
10948;BME280;5526;42.070;24.752;2023-03-14T05:21:49;99265.66;;;4.46;63.14
10948;BME280;5526;42.070;24.752;2023-03-14T05:24:16;99272.88;;;4.44;63.70
10948;BME280;5526;42.070;24.752;2023-03-14T05:26:43;99280.31;;;4.41;64.20
10948;BME280;5526;42.070;24.752;2023-03-14T05:29:10;99278.91;;;4.32;64.62
10948;BME280;5526;42.070;24.752;2023-03-14T05:31:37;99287.56;;;4.26;64.74
10948;BME280;5526;42.070;24.752;2023-03-14T05:34:04;99277.78;;;4.15;64.91
10948;BME280;5526;42.070;24.752;2023-03-14T05:36:33;99283.84;;;4.09;64.89
10948;BME280;5526;42.070;24.752;2023-03-14T05:39:00;99282.19;;;4.14;64.54
10948;BME280;5526;42.070;24.752;2023-03-14T05:41:27;99290.94;;;4.39;64.25
10948;BME280;5526;42.070;24.752;2023-03-14T05:43:54;99290.09;;;4.45;64.58
10948;BME280;5526;42.070;24.752;2023-03-14T05:46:21;99287.00;;;4.68;62.99
10948;BME280;5526;42.070;24.752;2023-03-14T05:48:48;99288.97;;;4.72;62.64
10948;BME280;5526;42.070;24.752;2023-03-14T05:51:16;99282.28;;;4.83;62.55
10948;BME280;5526;42.070;24.752;2023-03-14T05:53:44;99278.81;;;4.96;62.17
10948;BME280;5526;42.070;24.752;2023-03-14T05:56:11;99281.97;;;4.73;62.55
10948;BME280;5526;42.070;24.752;2023-03-14T05:58:38;99282.78;;;4.67;62.81
10948;BME280;5526;42.070;24.752;2023-03-14T06:01:06;99285.63;;;4.59;63.32
10948;BME280;5526;42.070;24.752;2023-03-14T06:03:33;99288.06;;;4.54;64.09
10948;BME280;5526;42.070;24.752;2023-03-14T06:06:01;99281.97;;;4.73;63.85
10948;BME280;5526;42.070;24.752;2023-03-14T06:08:28;99289.16;;;4.71;63.98
10948;BME280;5526;42.070;24.752;2023-03-14T06:10:57;99282.72;;;4.80;64.25
10948;BME280;5526;42.070;24.752;2023-03-14T06:13:24;99290.34;;;4.75;64.72
10948;BME280;5526;42.070;24.752;2023-03-14T06:15:51;99284.09;;;4.83;64.64
10948;BME280;5526;42.070;24.752;2023-03-14T06:18:18;99285.50;;;4.85;64.77
10948;BME280;5526;42.070;24.752;2023-03-14T06:20:45;99281.88;;;4.86;65.26
10948;BME280;5526;42.070;24.752;2023-03-14T06:23:12;99280.94;;;5.05;65.00
10948;BME280;5526;42.070;24.752;2023-03-14T06:25:39;99275.72;;;5.36;64.02
10948;BME280;5526;42.070;24.752;2023-03-14T06:28:07;99272.78;;;5.51;63.77
10948;BME280;5526;42.070;24.752;2023-03-14T06:30:34;99273.56;;;5.76;62.43
10948;BME280;5526;42.070;24.752;2023-03-14T06:33:01;99268.91;;;6.02;61.17
10948;BME280;5526;42.070;24.752;2023-03-14T06:35:28;99264.34;;;6.16;60.87
10948;BME280;5526;42.070;24.752;2023-03-14T06:37:55;99269.53;;;6.34;60.80
10948;BME280;5526;42.070;24.752;2023-03-14T06:40:22;99271.19;;;6.46;59.64
10948;BME280;5526;42.070;24.752;2023-03-14T06:42:49;99272.75;;;6.65;59.10
10948;BME280;5526;42.070;24.752;2023-03-14T06:45:18;99276.03;;;6.61;58.89
10948;BME280;5526;42.070;24.752;2023-03-14T06:47:45;99282.41;;;6.65;59.16
10948;BME280;5526;42.070;24.752;2023-03-14T06:50:12;99288.88;;;6.80;59.22
10948;BME280;5526;42.070;24.752;2023-03-14T06:52:39;99278.47;;;7.03;58.24
10948;BME280;5526;42.070;24.752;2023-03-14T06:55:11;99281.00;;;7.10;58.30
10948;BME280;5526;42.070;24.752;2023-03-14T06:57:38;99269.88;;;7.14;57.75
10948;BME280;5526;42.070;24.752;2023-03-14T07:00:06;99264.66;;;7.37;57.88
10948;BME280;5526;42.070;24.752;2023-03-14T07:02:35;99263.72;;;7.20;57.67
10948;BME280;5526;42.070;24.752;2023-03-14T07:05:03;99251.34;;;7.39;56.38
10948;BME280;5526;42.070;24.752;2023-03-14T07:07:30;99243.72;;;7.83;55.21
10948;BME280;5526;42.070;24.752;2023-03-14T07:09:57;99239.25;;;8.07;54.56
10948;BME280;5526;42.070;24.752;2023-03-14T07:12:24;99248.63;;;8.42;53.76
10948;BME280;5526;42.070;24.752;2023-03-14T07:14:51;99248.75;;;8.47;53.39
10948;BME280;5526;42.070;24.752;2023-03-14T07:17:18;99242.41;;;8.32;54.03
10948;BME280;5526;42.070;24.752;2023-03-14T07:19:46;99233.56;;;8.49;53.71
10948;BME280;5526;42.070;24.752;2023-03-14T07:22:13;99229.63;;;8.35;53.54
10948;BME280;5526;42.070;24.752;2023-03-14T07:24:40;99223.13;;;8.38;54.07
10948;BME280;5526;42.070;24.752;2023-03-14T07:27:07;99225.50;;;8.67;53.39
10948;BME280;5526;42.070;24.752;2023-03-14T07:29:34;99223.75;;;8.45;53.04
10948;BME280;5526;42.070;24.752;2023-03-14T07:32:01;99227.72;;;8.59;52.74
10948;BME280;5526;42.070;24.752;2023-03-14T07:34:28;99221.63;;;8.42;52.90
10948;BME280;5526;42.070;24.752;2023-03-14T07:36:57;99219.59;;;8.60;52.21
10948;BME280;5526;42.070;24.752;2023-03-14T07:39:24;99218.34;;;8.63;51.03
10948;BME280;5526;42.070;24.752;2023-03-14T07:41:51;99214.56;;;8.87;51.80
10948;BME280;5526;42.070;24.752;2023-03-14T07:44:18;99211.88;;;9.15;51.45
10948;BME280;5526;42.070;24.752;2023-03-14T07:46:45;99206.00;;;9.25;50.35
10948;BME280;5526;42.070;24.752;2023-03-14T07:49:12;99213.00;;;9.19;50.88
10948;BME280;5526;42.070;24.752;2023-03-14T07:51:39;99212.91;;;8.98;50.86
10948;BME280;5526;42.070;24.752;2023-03-14T07:54:07;99205.03;;;8.98;50.89
10948;BME280;5526;42.070;24.752;2023-03-14T07:56:34;99209.88;;;9.06;50.74
10948;BME280;5526;42.070;24.752;2023-03-14T07:59:01;99207.81;;;9.41;50.11
10948;BME280;5526;42.070;24.752;2023-03-14T08:01:29;99197.94;;;9.86;48.80
10948;BME280;5526;42.070;24.752;2023-03-14T08:03:56;99209.03;;;10.09;48.61
10948;BME280;5526;42.070;24.752;2023-03-14T08:06:23;99193.06;;;9.73;47.97
10948;BME280;5526;42.070;24.752;2023-03-14T08:08:50;99192.72;;;9.69;47.89
10948;BME280;5526;42.070;24.752;2023-03-14T08:11:18;99196.41;;;10.06;47.04
10948;BME280;5526;42.070;24.752;2023-03-14T08:13:45;99197.59;;;10.42;46.07
10948;BME280;5526;42.070;24.752;2023-03-14T08:16:15;99198.06;;;10.39;45.71
10948;BME280;5526;42.070;24.752;2023-03-14T08:18:42;99190.34;;;10.54;46.42
10948;BME280;5526;42.070;24.752;2023-03-14T08:21:10;99189.09;;;10.88;45.19
10948;BME280;5526;42.070;24.752;2023-03-14T08:23:37;99192.31;;;10.95;44.42
10948;BME280;5526;42.070;24.752;2023-03-14T08:26:05;99178.38;;;10.68;45.56
10948;BME280;5526;42.070;24.752;2023-03-14T08:28:33;99190.94;;;10.61;44.77
10948;BME280;5526;42.070;24.752;2023-03-14T08:31:01;99190.75;;;10.67;45.34
10948;BME280;5526;42.070;24.752;2023-03-14T08:33:29;99180.53;;;10.71;45.02
10948;BME280;5526;42.070;24.752;2023-03-14T08:35:58;99177.28;;;10.64;44.65
10948;BME280;5526;42.070;24.752;2023-03-14T08:38:25;99179.63;;;10.87;44.92
10948;BME280;5526;42.070;24.752;2023-03-14T08:40:55;99171.22;;;11.26;44.10
10948;BME280;5526;42.070;24.752;2023-03-14T08:43:23;99166.47;;;10.92;44.55
10948;BME280;5526;42.070;24.752;2023-03-14T08:45:51;99163.72;;;10.77;44.22
10948;BME280;5526;42.070;24.752;2023-03-14T08:48:18;99161.66;;;10.79;45.13
10948;BME280;5526;42.070;24.752;2023-03-14T08:50:46;99160.66;;;11.21;44.02
10948;BME280;5526;42.070;24.752;2023-03-14T08:53:13;99154.06;;;11.19;43.65
10948;BME280;5526;42.070;24.752;2023-03-14T08:55:40;99145.44;;;11.33;43.74
10948;BME280;5526;42.070;24.752;2023-03-14T08:58:07;99140.19;;;11.33;43.79
10948;BME280;5526;42.070;24.752;2023-03-14T09:00:34;99132.47;;;11.63;43.12
10948;BME280;5526;42.070;24.752;2023-03-14T09:03:03;99126.41;;;11.63;42.25
10948;BME280;5526;42.070;24.752;2023-03-14T09:05:32;99129.69;;;11.95;42.03
10948;BME280;5526;42.070;24.752;2023-03-14T09:08:00;99118.72;;;12.28;41.67
10948;BME280;5526;42.070;24.752;2023-03-14T09:10:27;99106.06;;;12.45;41.02
10948;BME280;5526;42.070;24.752;2023-03-14T09:12:54;99099.50;;;12.72;40.45
10948;BME280;5526;42.070;24.752;2023-03-14T09:15:23;99102.38;;;12.61;40.32
10948;BME280;5526;42.070;24.752;2023-03-14T09:17:50;99083.94;;;12.51;40.34
10948;BME280;5526;42.070;24.752;2023-03-14T09:20:18;99087.34;;;12.51;39.95
10948;BME280;5526;42.070;24.752;2023-03-14T09:22:45;99079.72;;;12.70;38.93
10948;BME280;5526;42.070;24.752;2023-03-14T09:25:12;99078.34;;;12.47;38.12
10948;BME280;5526;42.070;24.752;2023-03-14T09:27:39;99080.72;;;12.34;38.43
10948;BME280;5526;42.070;24.752;2023-03-14T09:30:08;99082.28;;;12.15;39.59
10948;BME280;5526;42.070;24.752;2023-03-14T09:32:36;99070.44;;;12.37;39.26
10948;BME280;5526;42.070;24.752;2023-03-14T09:35:04;99063.59;;;12.66;39.36
10948;BME280;5526;42.070;24.752;2023-03-14T09:37:32;99052.47;;;13.10;38.56
10948;BME280;5526;42.070;24.752;2023-03-14T09:39:59;99054.88;;;13.06;38.15
10948;BME280;5526;42.070;24.752;2023-03-14T09:42:26;99039.28;;;13.00;37.83
10948;BME280;5526;42.070;24.752;2023-03-14T09:44:56;99044.28;;;13.01;37.84
10948;BME280;5526;42.070;24.752;2023-03-14T09:47:24;99043.19;;;12.97;37.71
10948;BME280;5526;42.070;24.752;2023-03-14T09:49:52;99045.53;;;13.39;37.55
10948;BME280;5526;42.070;24.752;2023-03-14T09:52:22;99050.94;;;13.67;36.96
10948;BME280;5526;42.070;24.752;2023-03-14T09:54:53;99048.44;;;13.37;36.93
10948;BME280;5526;42.070;24.752;2023-03-14T09:57:23;99049.22;;;13.38;36.13
10948;BME280;5526;42.070;24.752;2023-03-14T09:59:54;99042.16;;;13.08;36.31
10948;BME280;5526;42.070;24.752;2023-03-14T10:02:24;99044.78;;;13.18;36.19
10948;BME280;5526;42.070;24.752;2023-03-14T10:04:53;99049.50;;;13.31;36.50
10948;BME280;5526;42.070;24.752;2023-03-14T10:07:25;99043.03;;;13.62;36.72
10948;BME280;5526;42.070;24.752;2023-03-14T10:09:56;99022.59;;;13.78;36.13
10948;BME280;5526;42.070;24.752;2023-03-14T10:12:30;99017.03;;;13.79;35.77
10948;BME280;5526;42.070;24.752;2023-03-14T10:15:03;99021.69;;;13.97;36.08
10948;BME280;5526;42.070;24.752;2023-03-14T10:17:38;99012.69;;;13.98;36.20
10948;BME280;5526;42.070;24.752;2023-03-14T10:20:06;98991.13;;;14.15;36.07
10948;BME280;5526;42.070;24.752;2023-03-14T10:22:36;98989.78;;;14.22;35.86
10948;BME280;5526;42.070;24.752;2023-03-14T10:25:06;98998.66;;;13.98;35.74
10948;BME280;5526;42.070;24.752;2023-03-14T10:27:50;98985.94;;;14.00;36.12
10948;BME280;5526;42.070;24.752;2023-03-14T10:30:29;98977.69;;;14.06;35.65
10948;BME280;5526;42.070;24.752;2023-03-14T10:32:57;98971.50;;;14.26;35.88
10948;BME280;5526;42.070;24.752;2023-03-14T10:35:24;98973.03;;;14.60;36.13
10948;BME280;5526;42.070;24.752;2023-03-14T10:37:53;98955.53;;;14.88;35.30
10948;BME280;5526;42.070;24.752;2023-03-14T10:40:28;98963.19;;;14.37;35.77
10948;BME280;5526;42.070;24.752;2023-03-14T10:42:58;98951.41;;;14.77;35.80
10948;BME280;5526;42.070;24.752;2023-03-14T10:45:33;98944.41;;;14.62;34.17
10948;BME280;5526;42.070;24.752;2023-03-14T10:48:16;98938.53;;;14.42;33.65
10948;BME280;5526;42.070;24.752;2023-03-14T10:50:49;98935.22;;;14.26;34.50
10948;BME280;5526;42.070;24.752;2023-03-14T10:53:17;98932.63;;;14.50;34.67
10948;BME280;5526;42.070;24.752;2023-03-14T10:55:46;98933.16;;;14.75;34.81
10948;BME280;5526;42.070;24.752;2023-03-14T10:58:20;98915.56;;;14.84;34.39
10948;BME280;5526;42.070;24.752;2023-03-14T11:00:51;98910.53;;;15.25;34.45
10948;BME280;5526;42.070;24.752;2023-03-14T11:03:20;98917.78;;;15.43;34.10
10948;BME280;5526;42.070;24.752;2023-03-14T11:05:53;98901.56;;;15.44;34.15
10948;BME280;5526;42.070;24.752;2023-03-14T11:08:25;98898.16;;;15.20;34.05
10948;BME280;5526;42.070;24.752;2023-03-14T11:11:07;98891.34;;;15.14;33.72
10948;BME280;5526;42.070;24.752;2023-03-14T11:13:39;98886.75;;;15.01;33.97
10948;BME280;5526;42.070;24.752;2023-03-14T11:16:16;98865.44;;;14.88;34.34
10948;BME280;5526;42.070;24.752;2023-03-14T11:18:54;98871.09;;;14.81;34.80
10948;BME280;5526;42.070;24.752;2023-03-14T11:21:30;98857.38;;;15.16;34.45
10948;BME280;5526;42.070;24.752;2023-03-14T11:24:15;98847.00;;;15.38;33.72
10948;BME280;5526;42.070;24.752;2023-03-14T11:26:49;98837.75;;;15.54;33.80
10948;BME280;5526;42.070;24.752;2023-03-14T11:29:22;98829.53;;;15.37;33.64
10948;BME280;5526;42.070;24.752;2023-03-14T11:31:51;98821.50;;;15.74;33.61
10948;BME280;5526;42.070;24.752;2023-03-14T11:34:27;98809.16;;;15.83;32.71
10948;BME280;5526;42.070;24.752;2023-03-14T11:36:59;98813.19;;;15.94;33.37
10948;BME280;5526;42.070;24.752;2023-03-14T11:39:36;98810.50;;;15.67;33.06
10948;BME280;5526;42.070;24.752;2023-03-14T11:42:11;98793.66;;;15.58;32.85
10948;BME280;5526;42.070;24.752;2023-03-14T11:44:40;98789.72;;;15.56;33.15
10948;BME280;5526;42.070;24.752;2023-03-14T11:47:11;98787.59;;;15.58;33.86
10948;BME280;5526;42.070;24.752;2023-03-14T11:49:42;98781.38;;;16.21;33.15
10948;BME280;5526;42.070;24.752;2023-03-14T11:52:16;98773.22;;;16.31;32.82
10948;BME280;5526;42.070;24.752;2023-03-14T11:54:49;98761.75;;;15.77;33.04
10948;BME280;5526;42.070;24.752;2023-03-14T11:57:19;98755.59;;;15.95;33.51
10948;BME280;5526;42.070;24.752;2023-03-14T11:59:50;98753.84;;;16.17;34.09
10948;BME280;5526;42.070;24.752;2023-03-14T12:02:24;98746.28;;;16.38;33.54
10948;BME280;5526;42.070;24.752;2023-03-14T12:05:22;98731.16;;;16.52;32.61
10948;BME280;5526;42.070;24.752;2023-03-14T12:08:16;98719.28;;;16.71;33.48
10948;BME280;5526;42.070;24.752;2023-03-14T12:10:47;98717.34;;;16.63;33.51
10948;BME280;5526;42.070;24.752;2023-03-14T12:13:18;98704.56;;;16.87;33.25
10948;BME280;5526;42.070;24.752;2023-03-14T12:15:48;98687.28;;;16.98;32.72
10948;BME280;5526;42.070;24.752;2023-03-14T12:18:21;98691.28;;;16.52;33.34
10948;BME280;5526;42.070;24.752;2023-03-14T12:20:54;98679.88;;;16.87;33.13
10948;BME280;5526;42.070;24.752;2023-03-14T12:23:23;98674.06;;;16.85;33.49
10948;BME280;5526;42.070;24.752;2023-03-14T12:26:13;98666.03;;;16.98;32.99
10948;BME280;5526;42.070;24.752;2023-03-14T12:28:44;98667.09;;;17.20;33.03
10948;BME280;5526;42.070;24.752;2023-03-14T12:31:41;98653.69;;;17.25;32.95
10948;BME280;5526;42.070;24.752;2023-03-14T12:34:31;98658.03;;;17.21;32.73
10948;BME280;5526;42.070;24.752;2023-03-14T12:37:20;98649.78;;;17.31;32.51
10948;BME280;5526;42.070;24.752;2023-03-14T12:40:03;98644.63;;;17.03;33.15
10948;BME280;5526;42.070;24.752;2023-03-14T12:42:45;98640.50;;;17.20;32.92
10948;BME280;5526;42.070;24.752;2023-03-14T12:45:25;98643.13;;;17.11;33.08
10948;BME280;5526;42.070;24.752;2023-03-14T12:48:09;98639.03;;;16.83;33.42
10948;BME280;5526;42.070;24.752;2023-03-14T12:50:41;98627.19;;;16.67;34.04
10948;BME280;5526;42.070;24.752;2023-03-14T12:56:15;98615.91;;;16.61;34.37
10948;BME280;5526;42.070;24.752;2023-03-14T12:58:56;98624.72;;;16.70;34.27
10948;BME280;5526;42.070;24.752;2023-03-14T13:01:27;98621.44;;;16.95;34.22
10948;BME280;5526;42.070;24.752;2023-03-14T13:03:56;98610.75;;;16.65;34.82
10948;BME280;5526;42.070;24.752;2023-03-14T13:06:47;98617.63;;;16.66;34.50
10948;BME280;5526;42.070;24.752;2023-03-14T13:12:17;98607.31;;;16.86;34.18
10948;BME280;5526;42.070;24.752;2023-03-14T13:14:47;98608.50;;;16.80;34.56
10948;BME280;5526;42.070;24.752;2023-03-14T13:17:22;98600.34;;;16.55;34.73
10948;BME280;5526;42.070;24.752;2023-03-14T13:19:53;98599.59;;;16.54;35.36
10948;BME280;5526;42.070;24.752;2023-03-14T13:22:24;98591.59;;;16.76;34.61
10948;BME280;5526;42.070;24.752;2023-03-14T13:24:59;98591.88;;;16.97;34.86